Marshall Army Air Field
KFRI : rendu visible

Aérodrome :











RETROUVEZ-NOUS SUR...

 
LOGIN :

S'inscrire | Disclaimer

   EN    FR    IT 

 









Légende :    VFR   VFR Marginal   IFR   IFR Intensif   IFR Très Intensif
Visi : 
Plafond : 
>= 8 km
>= 3000ft
5 à 8 km
1000 à 3000 ft
1500m à 5 km
500 à 1000 ft
800 à 1500m
200 à 500 ft
< 800m
< 200 ft
Symboles :   Orages  Brouillard  Fortes neiges  Fortes précipitations  Vent > 20 kt






- Altitude de l'aérodrome : 1065 ft


KFRI - Marshall Army Air Field

DERNIER METAR :
  • 281356Z 03006KT 5SM BR OVC010 00/M02 A3011 RMK AO2A SLP204 T00001025

METARs EXPIRÉS :
  • 281256Z AUTO 03008KT 10SM OVC010 00/M02 A3010 RMK AO2 SLP201 T00021023
  • 281156Z 05006KT 10SM OVC011 00/M02 A3009 RMK AO2A SLP197 T00041023 10012 20004 55008

TAF TAF KFRI
Valide du 28 à 13h jusqu'au 29 à 19h UTC


281300Z 2813/2919 04010KT 9999 OVC010 650129 QNH3005INS
BECMG 2823/2900 05010KT 6000 -SN BKN008 OVC010 650109 QNH3000INS
BECMG 2903/2904 02010KT 6000 -SN BKN004 OVC010 650109 QNH3003INS
BECMG 2909/2910 33010KT 9999 NSW BKN004 OVC010 650105 QNH3008INS
BECMG 2916/2917 VRB06KT 9999 OVC010 620103 QNH3011INS TX02/2818Z TNM03/2912Z



MET'MAP, la Météo Aéronautique d'un coup d'oeil ! - Copyright ORBIFLY Décembre 2007 - Disclaimer

ORBIFLY MET'MAP TEAM :

Programmation & Développement : Alexandra Zaïnal
Sur une idée originale de : Baudouin d'Aumeries
Assistance à la programmation : Marc-Olivier Méhu
Soutien technique & logistique : Manuel Goepfert

Contact : metmap@orbifly.com




SOURCES & CREDITS :

   NOAA       Earth
Advisory